UNNTUNBB

Guest
Details From UNNT - Novosibirsk Tolmachevo
To UNBB - BARNAUL
Flight Number -
Tags generated
Created
Modified
Stats Distance 104 nm / 192 km
Max Altitude 0 ft / 0 m
Waypoints 2
Social Downloads 2
Likes 0
Share VATSIM

Download

Looking for another format? Having issues loading an existing format? Contact us
Advertisement - Login to hide

Notes

Basic altitude profile: - Ascent Rate: 2500ft/min - Ascent Speed: 250kts - Cruise Altitude: 35000ft - Cruise Speed: 420kts - Descent Rate: 1500ft/min - Descent Speed: 250kts

Route

UNNT UNBB

ID Type Via Altitude Latitude Longitude Leg Dist Tot Dist Heading (true) Name
O UNNT APT - 0 ft / 0 m 55.01302˚ 82.65107˚ - 0 nm - Novosibirsk Tolmachevo
O UNBB APT - 0 ft / 0 m 53.36377˚ 83.53853˚ 103 nm 103 nm 162° / 163° BARNAUL

Altitude Profile

Advertisement - Login to hide

UNNT

Details ICAO UNNT (OVB)
Name Novosibirsk Tolmachevo
Region Russia
Timezone Asia/Novosibirsk (UTC+7.0)
Stats Elevation 365 ft / 111 m (AMSL)
Location 55.013017° 82.651065°
Runways 2
Magnetic Variation 8.868° E

METAR

UNNT 260400Z 04004MPS 9999 -RA BKN005 OVC033 07/06 Q1011 R07/290160 R34/290160 NOSIG RMK QBB170 QFE748/0997

Decode

TAF

TAF UNNT 260200Z 2603/2703 36005G10MPS 3000 -RA BR BKN005 FM260600 02005G10MPS 9999 BKN011CB TEMPO 2606/2703 3100 -SHRA BKN005 BKN011CB PROB40 TEMPO 2606/2703 -TSRA

Decode

Departure Runways

ID Width Length Bearing (true) Bearing (mag) Surface Threshold Offset Overrun Length
07 190 ft / 58 m 11,817 ft / 3,602 m 81.00° 72.13° Asphalt 0 ft / 0 m 250 ft / 76 m
07L 304 ft / 93 m 9,877 ft / 3,011 m 81.01° 72.14° Grass 0 ft / 0 m 0 ft / 0 m
25 190 ft / 58 m 11,817 ft / 3,602 m 261.04° 252.17° Asphalt 0 ft / 0 m 225 ft / 69 m
25R 304 ft / 93 m 9,877 ft / 3,011 m 261.05° 252.18° Grass 0 ft / 0 m 0 ft / 0 m

UNBB

Details ICAO UNBB (BAX)
Name BARNAUL
Region Russia
Timezone Asia/Omsk (UTC+6.0)
Stats Elevation 838 ft / 255 m (AMSL)
Location 53.363774° 83.538533°
Runways 1
Magnetic Variation 7.622° E

METAR

UNBB 260400Z 23009MPS CAVOK 17/10 Q1009 R24/290151 NOSIG RMK QFE735

Decode

TAF

TAF UNBB 260200Z 2603/2703 21007G13MPS 9999 BKN011CB TEMPO 2603/2606 3100 -SHRA BR SCT002 BKN011CB PROB40 TEMPO 2603/2606 -TSRA TEMPO 2606/2703 18012G17MPS

Decode

Destination Runways

ID Width Length Bearing (true) Bearing (mag) Surface Threshold Offset Overrun Length
06 164 ft / 50 m 9,340 ft / 2,847 m 67.18° 59.56° Concrete 1,148 ft / 350 m 160 ft / 49 m
24 164 ft / 50 m 9,340 ft / 2,847 m 247.21° 239.59° Concrete 0 ft / 0 m 160 ft / 49 m

Approach Navaids

Runway Type Ident Frequency Range Bearing (true) Bearing (mag) Slope Elevation
06 Localiser IBU 110.30 MHz 18 nm / 33 km 64.62° 56.99° - 838 ft / 255 m (AMSL)
06 Glidescope IBU 110.30 MHz 10 nm / 19 km 67.20° 59.58° 2.70° 838 ft / 255 m (AMSL)
24 Localiser IAR 108.70 MHz 18 nm / 33 km 245.74° 238.12° - 838 ft / 255 m (AMSL)
24 Glidescope IAR 108.70 MHz 10 nm / 19 km 247.20° 239.58° 2.70° 838 ft / 255 m (AMSL)

Popular Alternatives